Time;durP1;ratioP1;P1;durP2;ratioP2;P2;SDS_P1;SDS_P2;PMS_P1;PMS_P2;Temp;Humidity;BMP_temperature;BMP_pressure;BME280_temperature;BME280_humidity;BME280_pressure;Samples;Min_cycle;Max_cycle;Signal;HPM_P1;HPM_P2
2023/04/08 00:00:05;;;;;;;29.38;15.35;;;;;;;;;;4935120;29;20155;-78
2023/04/08 00:02:35;;;;;;;27.75;14.50;;;;;;;;;;4917865;29;20040;-78
2023/04/08 00:05:05;;;;;;;27.63;14.55;;;;;;;;;;4914942;29;20147;-80
2023/04/08 00:07:31;;;;;;;29.80;14.85;;;;;;;;;;4916536;29;20048;-79
2023/04/08 00:09:58;;;;;;;28.73;14.10;;;;;;;;;;4914045;29;20496;-80
2023/04/08 00:12:25;;;;;;;27.40;14.20;;;;;;;;;;4915581;29;20048;-79
2023/04/08 00:14:52;;;;;;;29.67;14.15;;;;;;;;;;4918248;29;20052;-78
2023/04/08 00:17:18;;;;;;;23.73;12.63;;;;;;;;;;4927891;29;20036;-78
2023/04/08 00:19:44;;;;;;;24.33;12.75;;;;;;;;;;4930958;29;20056;-79
2023/04/08 00:22:11;;;;;;;24.40;12.80;;;;;;;;;;4926890;29;20624;-79
2023/04/08 00:24:39;;;;;;;23.73;12.75;;;;;;;;;;4923004;29;20048;-79
2023/04/08 00:27:05;;;;;;;23.13;12.15;;;;;;;;;;4917119;29;20132;-79
2023/04/08 00:29:32;;;;;;;23.13;11.95;;;;;;;;;;4915549;29;20060;-80
2023/04/08 00:31:59;;;;;;;23.70;12.35;;;;;;;;;;4915779;29;20070;-79
2023/04/08 00:34:25;;;;;;;20.60;11.45;;;;;;;;;;4915654;29;20051;-80
2023/04/08 00:36:52;;;;;;;19.88;11.05;;;;;;;;;;4901288;29;20121;-79
2023/04/08 00:39:19;;;;;;;23.23;11.32;;;;;;;;;;4907550;29;20067;-75
2023/04/08 00:41:45;;;;;;;20.90;10.68;;;;;;;;;;4916775;29;20075;-79
2023/04/08 00:44:12;;;;;;;20.75;10.85;;;;;;;;;;4916919;29;20056;-77
2023/04/08 00:46:39;;;;;;;21.45;11.30;;;;;;;;;;4916175;29;20093;-78
2023/04/08 00:49:07;;;;;;;20.73;11.20;;;;;;;;;;4917332;29;20044;-80
2023/04/08 00:51:35;;;;;;;20.15;11.10;;;;;;;;;;4918494;29;20107;-78
2023/04/08 00:54:06;;;;;;;19.15;10.77;;;;;;;;;;4900583;29;20068;-79
2023/04/08 00:56:34;;;;;;;19.90;10.20;;;;;;;;;;4915964;29;20036;-78
2023/04/08 00:59:01;;;;;;;19.23;10.02;;;;;;;;;;4915505;29;20060;-79
2023/04/08 01:01:37;;;;;;;22.40;11.63;;;;;;;;;;4916255;29;20048;-80
2023/04/08 01:04:03;;;;;;;;;;;;;;;;;;4900810;29;20571;-80
2023/04/08 01:06:41;;;;;;;19.10;9.82;;;;;;;;;;4918357;29;19927;-77
2023/04/08 01:09:11;;;;;;;19.15;10.20;;;;;;;;;;4930454;29;20062;-78
2023/04/08 01:11:43;;;;;;;21.77;10.20;;;;;;;;;;4924190;29;20071;-79
2023/04/08 01:14:14;;;;;;;22.67;11.38;;;;;;;;;;4916972;29;20048;-80
2023/04/08 01:16:41;;;;;;;18.67;9.60;;;;;;;;;;4920736;29;20046;-79
2023/04/08 01:19:09;;;;;;;20.40;10.15;;;;;;;;;;4916744;29;20120;-79
2023/04/08 01:21:36;;;;;;;22.42;10.07;;;;;;;;;;4917849;29;20040;-79
2023/04/08 01:24:15;;;;;;;23.17;10.32;;;;;;;;;;4924397;29;20100;-79
2023/04/08 01:26:42;;;;;;;17.17;9.43;;;;;;;;;;4898479;29;20124;-79
2023/04/08 01:29:09;;;;;;;17.98;8.27;;;;;;;;;;4895761;29;20160;-79
2023/04/08 01:31:38;;;;;;;17.60;8.02;;;;;;;;;;4886352;29;20054;-79
2023/04/08 01:34:06;;;;;;;16.40;8.40;;;;;;;;;;4866638;29;20049;-79
2023/04/08 01:36:34;;;;;;;19.10;8.63;;;;;;;;;;4881122;29;20044;-78
2023/04/08 01:39:02;;;;;;;16.38;7.90;;;;;;;;;;4898047;29;20064;-79
2023/04/08 01:41:29;;;;;;;15.55;7.57;;;;;;;;;;4898153;29;20052;-80
2023/04/08 01:43:56;;;;;;;15.45;7.22;;;;;;;;;;4896800;29;20661;-79
2023/04/08 01:46:23;;;;;;;15.55;7.53;;;;;;;;;;4898566;29;20086;-80
2023/04/08 01:48:50;;;;;;;15.55;7.28;;;;;;;;;;4881083;29;20112;-80
2023/04/08 01:51:18;;;;;;;13.88;6.90;;;;;;;;;;4898872;29;20053;-78
2023/04/08 01:53:45;;;;;;;14.30;6.55;;;;;;;;;;4905670;29;20076;-78
2023/04/08 01:56:14;;;;;;;13.82;7.03;;;;;;;;;;4900128;29;20047;-79
2023/04/08 01:58:45;;;;;;;15.43;7.05;;;;;;;;;;4915707;29;20051;-80
2023/04/08 02:01:14;;;;;;;14.57;6.80;;;;;;;;;;4916504;29;20048;-79
2023/04/08 02:03:41;;;;;;;13.73;6.32;;;;;;;;;;4916212;29;20052;-80
2023/04/08 02:06:08;;;;;;;15.32;6.93;;;;;;;;;;4917996;29;20056;-80
2023/04/08 02:08:37;;;;;;;15.32;7.13;;;;;;;;;;4917140;29;20052;-79
2023/04/08 02:11:04;;;;;;;13.95;6.40;;;;;;;;;;4917009;29;20060;-80
2023/04/08 02:13:32;;;;;;;13.50;6.25;;;;;;;;;;4917266;29;20078;-80
2023/04/08 02:16:03;;;;;;;14.73;7.05;;;;;;;;;;4917969;29;20048;-80
2023/04/08 02:18:31;;;;;;;15.07;6.57;;;;;;;;;;4915456;29;20469;-80
2023/04/08 02:21:04;;;;;;;12.60;6.07;;;;;;;;;;4915512;29;20116;-80
2023/04/08 02:23:37;;;;;;;14.13;6.38;;;;;;;;;;4908260;29;20067;-79
2023/04/08 02:26:06;;;;;;;14.40;6.68;;;;;;;;;;4940691;29;20099;-76
2023/04/08 02:28:34;;;;;;;13.13;6.38;;;;;;;;;;4955171;29;20028;-77
2023/04/08 02:31:01;;;;;;;14.43;6.95;;;;;;;;;;4955850;29;20062;-77
2023/04/08 02:33:28;;;;;;;17.95;7.53;;;;;;;;;;4942061;29;20047;-81
2023/04/08 02:35:57;;;;;;;15.98;7.20;;;;;;;;;;4937210;29;20048;-80
2023/04/08 02:38:28;;;;;;;17.35;7.60;;;;;;;;;;4934357;29;20044;-81
2023/04/08 02:40:55;;;;;;;17.10;7.63;;;;;;;;;;4934858;29;20052;-78
2023/04/08 02:43:28;;;;;;;19.75;8.02;;;;;;;;;;4933474;29;20127;-78
2023/04/08 02:45:55;;;;;;;15.93;7.43;;;;;;;;;;4935020;29;20130;-79
2023/04/08 02:48:21;;;;;;;19.33;7.65;;;;;;;;;;4933659;29;20166;-78
2023/04/08 02:50:48;;;;;;;19.77;8.45;;;;;;;;;;4938049;29;20048;-78
2023/04/08 02:53:14;;;;;;;23.13;9.07;;;;;;;;;;4934535;29;20055;-77
2023/04/08 02:55:41;;;;;;;27.23;11.43;;;;;;;;;;4933514;29;20059;-82
2023/04/08 02:58:08;;;;;;;23.73;9.95;;;;;;;;;;4934411;29;20452;-78
2023/04/08 03:00:36;;;;;;;39.28;14.82;;;;;;;;;;4934658;29;20052;-79
2023/04/08 03:03:02;;;;;;;18.02;9.00;;;;;;;;;;4926499;29;20083;-79
2023/04/08 03:05:29;;;;;;;20.92;9.23;;;;;;;;;;4934129;29;20579;-78
2023/04/08 03:07:55;;;;;;;55.08;20.00;;;;;;;;;;4935696;29;20099;-78
2023/04/08 03:10:25;;;;;;;45.92;17.38;;;;;;;;;;4935953;29;20048;-79
2023/04/08 03:12:52;;;;;;;42.60;17.58;;;;;;;;;;4932252;29;20372;-78
2023/04/08 03:15:19;;;;;;;23.85;9.73;;;;;;;;;;4932758;29;20123;-80
2023/04/08 03:17:46;;;;;;;30.77;11.88;;;;;;;;;;4916028;29;20052;-80
2023/04/08 03:20:13;;;;;;;58.78;17.70;;;;;;;;;;4914180;29;20048;-79
2023/04/08 03:22:39;;;;;;;49.53;17.90;;;;;;;;;;4919641;29;20044;-80
2023/04/08 03:25:07;;;;;;;44.97;16.42;;;;;;;;;;4926338;29;20111;-80
2023/04/08 03:27:34;;;;;;;40.88;14.95;;;;;;;;;;4915932;29;20047;-74
2023/04/08 03:30:00;;;;;;;18.40;8.10;;;;;;;;;;4934270;29;20052;-78
2023/04/08 03:32:27;;;;;;;30.00;12.00;;;;;;;;;;4933265;29;20155;-80
2023/04/08 03:34:54;;;;;;;34.42;14.07;;;;;;;;;;4935643;29;20063;-78
2023/04/08 03:37:20;;;;;;;88.03;21.40;;;;;;;;;;4947672;29;20075;-79
2023/04/08 03:39:47;;;;;;;53.65;15.45;;;;;;;;;;4940437;29;20115;-80
2023/04/08 03:42:14;;;;;;;26.73;9.35;;;;;;;;;;4933303;29;20043;-80
2023/04/08 03:44:40;;;;;;;44.47;12.68;;;;;;;;;;4916714;29;20131;-80
2023/04/08 03:47:07;;;;;;;34.42;11.95;;;;;;;;;;4932172;29;20226;-80
2023/04/08 03:49:34;;;;;;;35.63;10.52;;;;;;;;;;4932212;29;20039;-79
2023/04/08 03:52:01;;;;;;;28.17;9.85;;;;;;;;;;4933528;29;20102;-80
2023/04/08 03:54:27;;;;;;;21.65;8.35;;;;;;;;;;4923609;29;20075;-80
2023/04/08 03:56:54;;;;;;;16.38;6.07;;;;;;;;;;4937525;29;20043;-79
2023/04/08 03:59:20;;;;;;;17.40;6.55;;;;;;;;;;4934609;29;20067;-79
2023/04/08 04:01:47;;;;;;;17.35;6.25;;;;;;;;;;4936846;29;20059;-79
2023/04/08 04:04:13;;;;;;;10.60;5.15;;;;;;;;;;4935652;29;20053;-80
2023/04/08 04:06:40;;;;;;;10.02;4.88;;;;;;;;;;4938220;29;20108;-78
2023/04/08 04:09:07;;;;;;;11.13;4.65;;;;;;;;;;4936147;29;20074;-80
2023/04/08 04:11:34;;;;;;;8.70;4.20;;;;;;;;;;4936920;29;20496;-79
2023/04/08 04:14:01;;;;;;;9.88;4.68;;;;;;;;;;4935885;29;20055;-79
2023/04/08 04:16:27;;;;;;;8.35;4.00;;;;;;;;;;4935667;29;20054;-81
2023/04/08 04:18:57;;;;;;;7.95;4.30;;;;;;;;;;4934854;29;20447;-78
2023/04/08 04:21:23;;;;;;;8.07;3.80;;;;;;;;;;4934060;29;20055;-79
2023/04/08 04:23:50;;;;;;;9.55;4.45;;;;;;;;;;4923720;29;20047;-80
2023/04/08 04:26:17;;;;;;;10.52;4.28;;;;;;;;;;4918524;29;20064;-80
2023/04/08 04:28:44;;;;;;;12.48;5.45;;;;;;;;;;4916595;29;20055;-78
2023/04/08 04:31:17;;;;;;;36.50;12.38;;;;;;;;;;4899508;29;20051;-80
2023/04/08 04:33:44;;;;;;;34.22;11.38;;;;;;;;;;4917529;29;20063;-79
2023/04/08 04:36:10;;;;;;;12.50;5.95;;;;;;;;;;4917024;29;20195;-78
2023/04/08 04:38:37;;;;;;;22.48;8.93;;;;;;;;;;4916216;29;20508;-79
2023/04/08 04:41:04;;;;;;;16.58;7.93;;;;;;;;;;4916659;29;20044;-78
2023/04/08 04:43:30;;;;;;;21.38;9.65;;;;;;;;;;4925541;29;20479;-79
2023/04/08 04:45:59;;;;;;;20.88;9.93;;;;;;;;;;4921702;29;20600;-81
2023/04/08 04:48:34;;;;;;;20.35;9.00;;;;;;;;;;4909574;29;20044;-77
2023/04/08 04:51:38;;;;;;;31.77;13.20;;;;;;;;;;4920526;29;20736;-81
2023/04/08 04:54:17;;;;;;;16.98;7.07;;;;;;;;;;4935164;29;20028;-78
2023/04/08 04:56:45;;;;;;;23.65;11.18;;;;;;;;;;4937012;29;20032;-78
2023/04/08 04:59:12;;;;;;;31.77;13.35;;;;;;;;;;4927262;29;20033;-78
2023/04/08 05:01:39;;;;;;;15.98;7.22;;;;;;;;;;4934241;29;20072;-78
2023/04/08 05:04:06;;;;;;;14.63;7.15;;;;;;;;;;4918564;29;20055;-78
2023/04/08 05:06:33;;;;;;;15.90;7.55;;;;;;;;;;4914910;29;20234;-78
2023/04/08 05:09:00;;;;;;;13.70;7.13;;;;;;;;;;4913318;29;20107;-77
2023/04/08 05:11:27;;;;;;;19.35;8.38;;;;;;;;;;4915796;29;20044;-78
2023/04/08 05:13:53;;;;;;;19.83;9.43;;;;;;;;;;4915155;29;20568;-79
2023/04/08 05:16:20;;;;;;;12.73;6.35;;;;;;;;;;4914890;29;20103;-79
2023/04/08 05:18:46;;;;;;;16.80;7.13;;;;;;;;;;4899840;29;20056;-78
2023/04/08 05:21:13;;;;;;;12.48;6.03;;;;;;;;;;4930702;29;20138;-78
2023/04/08 05:23:40;;;;;;;14.10;6.20;;;;;;;;;;4925950;29;20043;-78
2023/04/08 05:26:07;;;;;;;11.00;5.40;;;;;;;;;;4925130;29;20050;-79
2023/04/08 05:28:34;;;;;;;13.45;6.95;;;;;;;;;;4912002;29;20106;-78
2023/04/08 05:31:01;;;;;;;15.15;6.43;;;;;;;;;;4925176;29;20424;-79
2023/04/08 05:33:27;;;;;;;17.35;6.85;;;;;;;;;;4929393;29;20072;-80
2023/04/08 05:35:54;;;;;;;14.90;7.82;;;;;;;;;;4922076;29;20135;-80
2023/04/08 05:38:20;;;;;;;14.63;6.25;;;;;;;;;;4929625;29;20051;-78
2023/04/08 05:40:47;;;;;;;12.88;5.85;;;;;;;;;;4924750;29;20535;-79
2023/04/08 05:43:14;;;;;;;15.07;6.80;;;;;;;;;;4906215;29;20152;-79
2023/04/08 05:45:40;;;;;;;12.68;5.72;;;;;;;;;;4928165;29;20047;-78
2023/04/08 05:48:07;;;;;;;15.93;6.50;;;;;;;;;;4925895;29;20055;-81
2023/04/08 05:50:34;;;;;;;12.13;5.45;;;;;;;;;;4926662;29;20046;-80
2023/04/08 05:53:00;;;;;;;9.65;4.70;;;;;;;;;;4933505;29;20055;-76
2023/04/08 05:55:27;;;;;;;11.32;5.25;;;;;;;;;;4932680;29;20043;-78
2023/04/08 05:57:54;;;;;;;9.40;4.28;;;;;;;;;;4933560;29;20114;-78
2023/04/08 06:00:20;;;;;;;8.45;4.25;;;;;;;;;;4937370;29;20046;-77
2023/04/08 06:02:47;;;;;;;10.63;5.20;;;;;;;;;;4932458;29;20055;-77
2023/04/08 06:05:14;;;;;;;10.57;4.70;;;;;;;;;;4926073;29;20040;-79
2023/04/08 06:07:40;;;;;;;10.32;5.40;;;;;;;;;;4922702;29;20052;-80
2023/04/08 06:10:10;;;;;;;12.25;6.03;;;;;;;;;;4923826;29;20098;-77
2023/04/08 06:12:39;;;;;;;10.00;4.80;;;;;;;;;;4927459;29;20044;-79
2023/04/08 06:15:07;;;;;;;13.27;5.72;;;;;;;;;;4930362;29;20614;-78
2023/04/08 06:17:36;;;;;;;10.43;5.63;;;;;;;;;;4924024;29;20088;-80
2023/04/08 06:20:04;;;;;;;10.63;5.75;;;;;;;;;;4925641;29;20071;-78
2023/04/08 06:22:32;;;;;;;14.82;7.47;;;;;;;;;;4907258;29;20166;-77
2023/04/08 06:24:58;;;;;;;11.48;5.55;;;;;;;;;;4917634;29;20161;-78
2023/04/08 06:27:25;;;;;;;13.07;5.88;;;;;;;;;;4912511;29;20143;-79
2023/04/08 06:29:52;;;;;;;16.52;7.25;;;;;;;;;;4910778;29;20419;-79
2023/04/08 06:32:18;;;;;;;14.27;6.45;;;;;;;;;;4923838;29;20043;-77
2023/04/08 06:34:45;;;;;;;14.52;7.00;;;;;;;;;;4911447;29;20056;-78
2023/04/08 06:37:12;;;;;;;11.63;5.20;;;;;;;;;;4908403;29;20127;-78
2023/04/08 06:39:38;;;;;;;15.98;6.05;;;;;;;;;;4906513;29;20048;-78
2023/04/08 06:42:05;;;;;;;8.02;3.65;;;;;;;;;;4894859;29;20062;-78
2023/04/08 06:44:58;;;;;;;6.60;3.20;;;;;;;;;;4911362;29;20644;-78
2023/04/08 06:47:25;;;;;;;7.30;3.00;;;;;;;;;;4907684;29;20051;-77
2023/04/08 06:49:51;;;;;;;7.43;3.15;;;;;;;;;;4909744;29;20059;-80
2023/04/08 06:52:19;;;;;;;7.25;3.38;;;;;;;;;;4892404;29;20079;-77
2023/04/08 06:54:46;;;;;;;7.00;3.30;;;;;;;;;;4908677;29;20068;-78
2023/04/08 06:57:12;;;;;;;7.32;3.38;;;;;;;;;;4915904;29;20056;-79
2023/04/08 06:59:39;;;;;;;7.72;3.15;;;;;;;;;;4914775;29;20044;-78
2023/04/08 07:02:05;;;;;;;7.45;3.47;;;;;;;;;;4923607;29;20052;-78
2023/04/08 07:04:32;;;;;;;7.55;3.22;;;;;;;;;;4916410;29;20059;-77
2023/04/08 07:06:59;;;;;;;9.63;4.32;;;;;;;;;;4918524;29;20069;-79
2023/04/08 07:09:25;;;;;;;8.88;3.63;;;;;;;;;;4913601;29;20456;-79
2023/04/08 07:11:52;;;;;;;8.85;4.07;;;;;;;;;;4893978;29;20108;-78
2023/04/08 07:14:19;;;;;;;11.68;4.28;;;;;;;;;;4918291;29;20356;-77
2023/04/08 07:16:45;;;;;;;12.23;4.10;;;;;;;;;;4920254;29;20133;-76
2023/04/08 07:19:12;;;;;;;9.07;3.85;;;;;;;;;;4918301;29;20136;-80
2023/04/08 07:21:39;;;;;;;9.45;4.00;;;;;;;;;;4912935;29;20044;-80
2023/04/08 07:24:05;;;;;;;12.35;4.50;;;;;;;;;;4910585;29;20435;-77
2023/04/08 07:26:32;;;;;;;10.15;4.47;;;;;;;;;;4894561;29;20044;-80
2023/04/08 07:28:59;;;;;;;12.55;5.05;;;;;;;;;;4909852;29;20044;-78
2023/04/08 07:31:26;;;;;;;10.88;4.65;;;;;;;;;;4910180;29;20044;-77
2023/04/08 07:33:52;;;;;;;22.75;8.20;;;;;;;;;;4909186;29;20464;-78
2023/04/08 07:36:19;;;;;;;10.57;4.70;;;;;;;;;;4909976;29;20095;-78
2023/04/08 07:38:46;;;;;;;14.13;5.63;;;;;;;;;;4908727;29;20134;-80
2023/04/08 07:41:13;;;;;;;13.18;5.10;;;;;;;;;;4907954;29;20063;-77
2023/04/08 07:43:39;;;;;;;12.85;5.78;;;;;;;;;;4910043;29;20056;-77
2023/04/08 07:46:06;;;;;;;14.95;6.30;;;;;;;;;;4908224;29;20100;-77
2023/04/08 07:48:33;;;;;;;24.77;7.20;;;;;;;;;;4906742;29;20051;-78
2023/04/08 07:51:04;;;;;;;15.88;7.03;;;;;;;;;;4911753;29;20051;-81
2023/04/08 07:53:35;;;;;;;;;;;;;;;;;;4913501;29;20060;-79
2023/04/08 07:56:03;;;;;;;16.17;6.63;;;;;;;;;;4912462;29;20299;-80
2023/04/08 07:58:30;;;;;;;18.20;7.70;;;;;;;;;;4911395;29;20048;-79
2023/04/08 08:00:58;;;;;;;29.88;11.90;;;;;;;;;;4911176;29;20082;-79
2023/04/08 08:03:25;;;;;;;30.08;11.20;;;;;;;;;;4911825;29;20051;-80
2023/04/08 08:05:51;;;;;;;24.05;10.25;;;;;;;;;;4911998;29;20040;-79
2023/04/08 08:08:18;;;;;;;21.48;10.82;;;;;;;;;;4893383;29;20099;-78
2023/04/08 08:10:44;;;;;;;17.77;7.88;;;;;;;;;;4910224;29;20066;-80
2023/04/08 08:13:15;;;;;;;20.70;8.57;;;;;;;;;;4911276;29;20036;-79
2023/04/08 08:15:42;;;;;;;21.25;8.63;;;;;;;;;;4910624;29;20432;-80
2023/04/08 08:18:09;;;;;;;20.40;9.20;;;;;;;;;;4894088;29;20041;-79
2023/04/08 08:20:35;;;;;;;26.25;10.98;;;;;;;;;;4908880;29;20131;-79
2023/04/08 08:23:02;;;;;;;30.20;11.32;;;;;;;;;;4918636;29;20043;-79
2023/04/08 08:25:28;;;;;;;33.80;13.45;;;;;;;;;;4926119;29;20039;-78
2023/04/08 08:27:55;;;;;;;43.88;18.30;;;;;;;;;;4939983;29;20122;-77
2023/04/08 08:30:21;;;;;;;45.55;16.55;;;;;;;;;;4929908;29;20131;-80
2023/04/08 08:32:49;;;;;;;46.03;17.05;;;;;;;;;;4932300;29;20111;-78
2023/04/08 08:35:16;;;;;;;47.33;18.13;;;;;;;;;;4930376;29;20047;-79
2023/04/08 08:37:43;;;;;;;51.08;18.80;;;;;;;;;;4930884;29;20075;-78
2023/04/08 08:40:10;;;;;;;51.58;19.98;;;;;;;;;;4931129;29;20039;-79
2023/04/08 08:42:37;;;;;;;50.33;20.08;;;;;;;;;;4914934;29;20039;-77
2023/04/08 08:45:05;;;;;;;53.90;21.63;;;;;;;;;;4933948;29;20075;-79
2023/04/08 08:47:32;;;;;;;58.72;21.33;;;;;;;;;;4934629;29;20048;-80
2023/04/08 08:49:59;;;;;;;57.08;22.42;;;;;;;;;;4933736;29;20131;-78
2023/04/08 08:52:26;;;;;;;57.13;22.27;;;;;;;;;;4935178;29;20588;-77
2023/04/08 08:54:58;;;;;;;55.28;23.55;;;;;;;;;;4936165;29;20043;-79
2023/04/08 08:57:26;;;;;;;59.78;24.30;;;;;;;;;;4926943;29;20549;-79
2023/04/08 08:59:52;;;;;;;56.05;23.98;;;;;;;;;;4944532;29;20072;-78
2023/04/08 09:02:24;;;;;;;59.88;25.95;;;;;;;;;;4946145;29;20047;-79
2023/04/08 09:04:58;;;;;;;56.30;24.95;;;;;;;;;;4946932;29;20060;-78
2023/04/08 09:07:25;;;;;;;54.30;25.73;;;;;;;;;;4945919;29;20052;-78
2023/04/08 09:09:53;;;;;;;49.70;24.02;;;;;;;;;;4925667;29;20138;-78
2023/04/08 09:12:20;;;;;;;54.33;24.50;;;;;;;;;;4941459;29;20063;-80
2023/04/08 09:14:47;;;;;;;53.05;24.30;;;;;;;;;;4942485;29;20287;-76
2023/04/08 09:17:31;;;;;;;51.30;23.90;;;;;;;;;;4943310;29;20554;-77
2023/04/08 09:20:10;;;;;;;53.13;23.52;;;;;;;;;;4943545;29;20135;-78
2023/04/08 09:22:52;;;;;;;53.03;24.73;;;;;;;;;;4936397;29;20445;-78
2023/04/08 09:25:26;;;;;;;48.75;23.55;;;;;;;;;;4939066;29;20051;-76
2023/04/08 09:27:53;;;;;;;49.63;23.92;;;;;;;;;;4930917;29;20111;-79
2023/04/08 09:30:21;;;;;;;49.00;24.15;;;;;;;;;;4948827;29;20128;-77
2023/04/08 09:32:52;;;;;;;49.60;23.67;;;;;;;;;;4944245;29;20047;-79
2023/04/08 09:35:19;;;;;;;47.08;24.40;;;;;;;;;;4945716;29;20056;-78
2023/04/08 09:37:46;;;;;;;46.00;23.10;;;;;;;;;;4942687;29;20052;-80
2023/04/08 09:40:16;;;;;;;47.28;22.65;;;;;;;;;;4943695;29;20427;-77
2023/04/08 09:42:49;;;;;;;45.38;23.27;;;;;;;;;;4942971;29;20122;-77
2023/04/08 09:45:18;;;;;;;45.97;23.20;;;;;;;;;;4940193;29;20266;-78
2023/04/08 09:48:06;;;;;;;44.75;22.13;;;;;;;;;;4940108;29;20058;-79
2023/04/08 09:50:38;;;;;;;43.10;22.15;;;;;;;;;;4937253;29;20063;-80
2023/04/08 09:53:25;;;;;;;38.45;20.92;;;;;;;;;;4939508;29;20514;-80
2023/04/08 09:55:54;;;;;;;42.17;21.10;;;;;;;;;;4935327;29;20554;-80
2023/04/08 09:58:24;;;;;;;38.30;19.25;;;;;;;;;;4934431;29;20054;-80
2023/04/08 10:00:51;;;;;;;37.95;20.42;;;;;;;;;;4924432;29;20079;-80
2023/04/08 10:03:27;;;;;;;34.58;18.92;;;;;;;;;;4922729;29;20056;-77
2023/04/08 10:06:00;;;;;;;36.40;19.52;;;;;;;;;;4907204;29;20043;-79
2023/04/08 10:08:27;;;;;;;35.83;19.40;;;;;;;;;;4920283;29;20401;-79
2023/04/08 10:10:55;;;;;;;38.60;19.88;;;;;;;;;;4906004;29;20044;-80
2023/04/08 10:13:22;;;;;;;37.33;18.70;;;;;;;;;;4924434;29;20058;-80
2023/04/08 10:15:49;;;;;;;32.83;18.17;;;;;;;;;;4923361;29;20058;-79
2023/04/08 10:18:17;;;;;;;37.55;19.90;;;;;;;;;;4920894;29;20047;-79
2023/04/08 10:20:44;;;;;;;41.95;21.35;;;;;;;;;;4923736;29;20367;-80
2023/04/08 10:23:14;;;;;;;39.80;20.75;;;;;;;;;;4910068;29;20071;-80
2023/04/08 10:25:41;;;;;;;36.80;20.02;;;;;;;;;;4923782;29;20112;-79
2023/04/08 10:28:10;;;;;;;41.17;21.05;;;;;;;;;;4925636;29;20035;-78
2023/04/08 10:30:40;;;;;;;38.42;20.40;;;;;;;;;;4931421;29;20051;-77
2023/04/08 10:33:09;;;;;;;33.28;19.00;;;;;;;;;;4931113;29;20509;-79
2023/04/08 10:35:36;;;;;;;32.53;16.25;;;;;;;;;;4932682;29;20043;-78
2023/04/08 10:38:03;;;;;;;24.05;13.13;;;;;;;;;;4932572;29;20139;-79
2023/04/08 10:40:36;;;;;;;21.98;11.10;;;;;;;;;;4932921;29;20492;-78
2023/04/08 10:43:04;;;;;;;16.00;9.18;;;;;;;;;;4916184;29;20043;-79
2023/04/08 10:45:30;;;;;;;19.65;9.43;;;;;;;;;;4931415;29;20048;-79
2023/04/08 10:48:10;;;;;;;20.38;9.90;;;;;;;;;;4929015;29;20055;-78
2023/04/08 10:50:36;;;;;;;16.77;9.57;;;;;;;;;;4933162;29;20496;-80
2023/04/08 10:53:03;;;;;;;18.80;9.65;;;;;;;;;;4924789;29;20052;-79
2023/04/08 10:55:31;;;;;;;19.65;9.93;;;;;;;;;;4904915;29;20575;-80
2023/04/08 10:58:04;;;;;;;16.85;9.25;;;;;;;;;;4912274;29;20048;-80
2023/04/08 11:00:32;;;;;;;15.95;8.27;;;;;;;;;;4917488;29;20075;-80
2023/04/08 11:03:03;;;;;;;14.07;8.40;;;;;;;;;;4924327;29;20596;-79
2023/04/08 11:05:31;;;;;;;16.52;8.43;;;;;;;;;;4923508;29;20050;-79
2023/04/08 11:08:00;;;;;;;12.43;6.75;;;;;;;;;;4906235;29;20054;-79
2023/04/08 11:10:28;;;;;;;13.90;7.85;;;;;;;;;;4927707;29;20050;-76
2023/04/08 11:12:55;;;;;;;13.07;7.13;;;;;;;;;;4930780;29;20436;-79
2023/04/08 11:15:24;;;;;;;12.38;6.45;;;;;;;;;;4931755;29;20115;-80
2023/04/08 11:17:52;;;;;;;10.93;6.13;;;;;;;;;;4931925;29;20075;-79
2023/04/08 11:20:19;;;;;;;10.07;6.05;;;;;;;;;;4933330;29;20071;-80
2023/04/08 11:22:46;;;;;;;10.50;6.20;;;;;;;;;;4925728;29;20068;-80
2023/04/08 11:25:13;;;;;;;10.48;6.35;;;;;;;;;;4921114;29;20074;-77
2023/04/08 11:27:39;;;;;;;10.95;6.20;;;;;;;;;;4927052;29;20114;-78
2023/04/08 11:30:06;;;;;;;12.65;7.20;;;;;;;;;;4929975;29;20062;-77
2023/04/08 11:32:34;;;;;;;11.65;6.50;;;;;;;;;;4931635;29;20043;-80
2023/04/08 11:35:04;;;;;;;11.30;6.68;;;;;;;;;;4913917;29;20052;-78
2023/04/08 11:37:40;;;;;;;12.15;6.88;;;;;;;;;;4931129;29;20047;-80
2023/04/08 11:40:08;;;;;;;10.10;6.45;;;;;;;;;;4932312;29;20090;-80
2023/04/08 11:42:34;;;;;;;12.80;7.05;;;;;;;;;;4941240;29;20055;-78
2023/04/08 11:45:08;;;;;;;12.98;7.30;;;;;;;;;;4952102;29;20039;-77
2023/04/08 11:47:36;;;;;;;15.48;7.90;;;;;;;;;;4932046;29;20067;-77
2023/04/08 11:50:02;;;;;;;11.75;7.22;;;;;;;;;;4947559;29;20059;-80
2023/04/08 11:52:42;;;;;;;12.30;7.25;;;;;;;;;;4917142;29;20067;-78
2023/04/08 11:55:09;;;;;;;14.82;7.80;;;;;;;;;;4915540;29;20055;-78
2023/04/08 11:57:36;;;;;;;15.18;7.68;;;;;;;;;;4930818;29;20135;-80
2023/04/08 12:00:06;;;;;;;15.07;8.50;;;;;;;;;;4931558;29;20733;-78
2023/04/08 12:02:36;;;;;;;14.15;7.88;;;;;;;;;;4932108;29;20095;-79
2023/04/08 12:05:02;;;;;;;16.27;8.95;;;;;;;;;;4929560;29;20048;-79
2023/04/08 12:07:29;;;;;;;17.67;8.60;;;;;;;;;;4929863;29;20143;-80
2023/04/08 12:09:56;;;;;;;18.52;9.63;;;;;;;;;;4930320;29;20103;-79
2023/04/08 12:12:22;;;;;;;19.05;9.10;;;;;;;;;;4931389;29;20059;-79
2023/04/08 12:14:49;;;;;;;17.70;9.52;;;;;;;;;;4931623;29;20059;-79
2023/04/08 12:17:15;;;;;;;19.77;9.10;;;;;;;;;;4917062;29;20044;-77
2023/04/08 12:19:42;;;;;;;18.13;9.52;;;;;;;;;;4932012;29;20052;-80
2023/04/08 12:22:09;;;;;;;18.23;9.52;;;;;;;;;;4928024;29;20154;-80
2023/04/08 12:24:35;;;;;;;18.98;9.18;;;;;;;;;;4927311;29;20059;-80
2023/04/08 12:27:03;;;;;;;17.25;9.40;;;;;;;;;;4935675;29;20107;-79
2023/04/08 12:29:30;;;;;;;16.65;8.80;;;;;;;;;;4932257;29;20059;-80
2023/04/08 12:31:57;;;;;;;15.55;8.45;;;;;;;;;;4917010;29;20503;-79
2023/04/08 12:34:24;;;;;;;16.98;8.77;;;;;;;;;;4934204;29;20043;-79
2023/04/08 12:36:50;;;;;;;16.27;8.90;;;;;;;;;;4917624;29;20055;-77
2023/04/08 12:39:17;;;;;;;16.63;9.25;;;;;;;;;;4927225;29;20063;-79
2023/04/08 12:41:43;;;;;;;16.55;9.68;;;;;;;;;;4935696;29;20051;-80
2023/04/08 12:44:10;;;;;;;18.02;9.18;;;;;;;;;;4925298;29;20449;-79
2023/04/08 12:46:37;;;;;;;15.85;9.18;;;;;;;;;;4916601;29;20107;-78
2023/04/08 12:49:03;;;;;;;16.92;9.45;;;;;;;;;;4915117;29;20416;-80
2023/04/08 12:51:32;;;;;;;17.67;10.15;;;;;;;;;;4917454;29;20051;-81
2023/04/08 12:54:00;;;;;;;17.83;9.95;;;;;;;;;;4916427;29;20052;-79
2023/04/08 12:56:26;;;;;;;20.58;11.25;;;;;;;;;;4915737;29;20066;-80
2023/04/08 12:58:54;;;;;;;18.65;9.93;;;;;;;;;;4915983;29;20055;-78
2023/04/08 13:01:21;;;;;;;17.70;9.93;;;;;;;;;;4917018;29;20052;-79
2023/04/08 13:03:47;;;;;;;18.45;10.25;;;;;;;;;;4917962;29;20040;-79
2023/04/08 13:06:14;;;;;;;20.73;11.10;;;;;;;;;;4918424;29;20465;-80
2023/04/08 13:08:41;;;;;;;19.48;11.25;;;;;;;;;;4917956;29;20111;-79
2023/04/08 13:11:08;;;;;;;24.58;11.27;;;;;;;;;;4924729;29;20055;-79
2023/04/08 13:13:35;;;;;;;20.92;11.60;;;;;;;;;;4908207;29;20062;-81
2023/04/08 13:16:02;;;;;;;21.98;12.35;;;;;;;;;;4919881;29;20056;-79
2023/04/08 13:18:29;;;;;;;23.10;12.73;;;;;;;;;;4914649;29;20125;-79
2023/04/08 13:20:57;;;;;;;23.33;12.38;;;;;;;;;;4916704;29;20058;-79
2023/04/08 13:23:23;;;;;;;24.02;13.68;;;;;;;;;;4927314;29;20114;-80
2023/04/08 13:25:53;;;;;;;24.05;12.48;;;;;;;;;;4920049;29;20066;-80
2023/04/08 13:28:20;;;;;;;24.48;14.07;;;;;;;;;;4915340;29;20052;-78
2023/04/08 13:30:47;;;;;;;26.02;14.82;;;;;;;;;;4913976;29;20132;-78
2023/04/08 13:33:16;;;;;;;28.27;15.77;;;;;;;;;;4914946;29;20671;-80
2023/04/08 13:35:43;;;;;;;29.17;16.13;;;;;;;;;;4915088;29;20056;-80
2023/04/08 13:38:09;;;;;;;28.70;16.33;;;;;;;;;;4915319;29;20350;-80
2023/04/08 13:40:36;;;;;;;28.38;16.67;;;;;;;;;;4917986;29;20084;-79
2023/04/08 13:43:02;;;;;;;28.52;16.40;;;;;;;;;;4917205;29;20079;-78
2023/04/08 13:45:29;;;;;;;26.85;15.27;;;;;;;;;;4924023;29;20104;-79
2023/04/08 13:47:56;;;;;;;25.73;15.23;;;;;;;;;;4919705;29;20056;-77
2023/04/08 13:50:23;;;;;;;26.83;15.40;;;;;;;;;;4922688;29;20116;-77
2023/04/08 13:52:50;;;;;;;25.85;14.90;;;;;;;;;;4904802;29;20056;-78
2023/04/08 13:55:16;;;;;;;28.17;15.70;;;;;;;;;;4920562;29;20052;-77
2023/04/08 13:57:45;;;;;;;31.45;16.55;;;;;;;;;;4911434;29;20108;-79
2023/04/08 14:00:12;;;;;;;26.42;16.10;;;;;;;;;;4892321;29;20079;-78
2023/04/08 14:02:40;;;;;;;28.27;16.45;;;;;;;;;;4894423;29;20052;-77
2023/04/08 14:05:07;;;;;;;30.25;16.98;;;;;;;;;;4910057;29;20076;-78
2023/04/08 14:07:34;;;;;;;32.35;17.77;;;;;;;;;;4899136;29;20049;-77
2023/04/08 14:10:01;;;;;;;33.22;17.63;;;;;;;;;;4915194;29;20584;-78
2023/04/08 14:12:27;;;;;;;31.75;17.23;;;;;;;;;;4925891;29;20125;-78
2023/04/08 14:14:54;;;;;;;30.40;16.65;;;;;;;;;;4921032;29;20048;-78
2023/04/08 14:17:23;;;;;;;30.80;17.17;;;;;;;;;;4930047;29;20046;-78
2023/04/08 14:19:50;;;;;;;32.65;17.23;;;;;;;;;;4916998;29;20043;-80
2023/04/08 14:22:17;;;;;;;30.15;16.63;;;;;;;;;;4914709;29;20087;-79
2023/04/08 14:24:44;;;;;;;29.38;16.63;;;;;;;;;;4923410;29;20063;-76
2023/04/08 14:27:11;;;;;;;27.20;16.33;;;;;;;;;;4916534;29;20058;-78
2023/04/08 14:29:38;;;;;;;31.08;17.42;;;;;;;;;;4911819;29;20055;-78